Time;durP1;ratioP1;P1;durP2;ratioP2;P2;SDS_P1;SDS_P2;PMS_P1;PMS_P2;Temp;Humidity;BMP_temperature;BMP_pressure;BME280_temperature;BME280_humidity;BME280_pressure;Samples;Min_cycle;Max_cycle;Signal;HPM_P1;HPM_P2
2022/12/22 03:28:08;;;;;;;27.58;16.65;;;9.40;99.90;;;;;;5113737;27;20047;-89
2022/12/22 03:30:34;;;;;;;24.30;15.95;;;9.40;99.90;;;;;;5094971;28;20641;-90
2022/12/22 03:33:00;;;;;;;24.85;16.10;;;9.40;99.90;;;;;;5095038;28;20386;-89
2022/12/22 03:35:26;;;;;;;23.55;16.83;;;9.40;99.90;;;;;;5095084;28;20038;-89
2022/12/22 03:37:51;;;;;;;25.98;17.35;;;9.40;99.90;;;;;;5095457;28;20103;-89
2022/12/22 03:40:17;;;;;;;25.75;16.67;;;9.40;99.90;;;;;;5095594;27;20532;-90
2022/12/22 03:48:11;;;;;;;26.67;17.63;;;9.40;99.90;;;;;;5114743;27;20485;-90
2022/12/22 03:50:36;;;;;;;24.92;16.70;;;9.40;99.90;;;;;;5115361;27;20092;-90
2022/12/22 03:53:03;;;;;;;26.02;16.75;;;9.40;99.90;;;;;;5097993;28;20483;-90
2022/12/22 03:55:28;;;;;;;28.98;16.17;;;9.30;99.90;;;;;;5094895;28;20039;-90
2022/12/22 03:57:54;;;;;;;28.65;16.67;;;9.40;99.90;;;;;;5094720;28;20035;-90
2022/12/22 04:00:19;;;;;;;28.15;17.63;;;9.40;99.90;;;;;;5093545;28;20585;-90
2022/12/22 04:02:45;;;;;;;28.23;16.55;;;9.40;99.90;;;;;;5112787;28;20112;-90
2022/12/22 04:05:11;;;;;;;27.48;16.92;;;9.40;99.90;;;;;;5096650;27;20525;-90
2022/12/22 04:07:36;;;;;;;24.80;16.67;;;9.40;99.90;;;;;;5115047;27;20039;-90
2022/12/22 04:12:53;;;;;;;26.13;16.75;;;9.40;99.90;;;;;;5093666;28;20084;-90
2022/12/22 04:15:21;;;;;;;28.35;16.63;;;9.40;99.90;;;;;;5094936;28;20040;-90
2022/12/22 04:17:47;;;;;;;24.33;15.60;;;9.40;99.90;;;;;;5120693;27;20553;-90
2022/12/22 04:20:12;;;;;;;25.60;16.55;;;9.40;99.90;;;;;;5094130;28;20159;-90
2022/12/22 04:22:38;;;;;;;27.33;16.73;;;9.40;99.90;;;;;;5098639;27;20049;-90
2022/12/22 04:25:04;;;;;;;26.50;16.05;;;9.40;99.90;;;;;;5097892;28;20146;-90
2022/12/22 04:27:30;;;;;;;25.70;16.60;;;9.40;99.90;;;;;;5093985;28;20115;-90
2022/12/22 04:29:55;;;;;;;27.40;16.45;;;9.40;99.90;;;;;;5104638;27;20039;-90
2022/12/22 04:32:21;;;;;;;24.60;16.02;;;9.40;99.90;;;;;;5114504;27;20031;-90
2022/12/22 04:34:46;;;;;;;27.92;16.95;;;9.40;99.90;;;;;;5114675;27;20416;-90
2022/12/22 04:37:12;;;;;;;25.05;16.00;;;9.40;99.90;;;;;;5105410;27;20043;-90
2022/12/22 04:39:37;;;;;;;24.33;15.82;;;9.40;99.90;;;;;;5114283;27;20424;-90
2022/12/22 04:42:03;;;;;;;24.30;15.15;;;9.40;99.90;;;;;;5113697;27;20046;-90
2022/12/22 04:44:29;;;;;;;23.50;15.52;;;9.50;99.90;;;;;;5114269;27;20047;-89
2022/12/22 04:46:54;;;;;;;24.85;15.65;;;9.50;99.90;;;;;;5113851;27;20043;-90
2022/12/22 04:49:20;;;;;;;30.17;17.00;;;9.50;99.90;;;;;;5100939;28;20035;-90
2022/12/22 04:51:45;;;;;;;25.45;16.70;;;9.50;99.90;;;;;;5093575;28;20079;-90
2022/12/22 04:54:11;;;;;;;25.70;16.73;;;9.50;99.90;;;;;;5096600;27;20062;-90
2022/12/22 04:56:36;;;;;;;24.23;16.05;;;9.50;99.90;;;;;;5114611;27;20035;-90
2022/12/22 04:59:02;;;;;;;25.48;17.05;;;9.50;99.90;;;;;;5132615;27;20484;-90
2022/12/22 05:01:28;;;;;;;23.85;15.65;;;9.50;99.90;;;;;;5129370;27;20074;-90
2022/12/22 05:03:53;;;;;;;25.40;17.10;;;9.50;99.90;;;;;;5093776;28;20039;-90
2022/12/22 05:06:19;;;;;;;26.35;16.77;;;9.50;99.90;;;;;;5093675;28;20613;-90
2022/12/22 05:08:44;;;;;;;26.05;16.30;;;9.50;99.90;;;;;;5108080;27;20078;-90
2022/12/22 05:11:10;;;;;;;27.40;17.60;;;9.50;99.90;;;;;;5113441;27;20046;-90
2022/12/22 05:13:36;;;;;;;25.90;15.90;;;9.50;99.90;;;;;;5110022;27;20122;-90
2022/12/22 05:16:11;;;;;;;27.83;15.70;;;9.50;99.90;;;;;;5108016;27;20484;-90
2022/12/22 05:18:37;;;;;;;31.65;17.35;;;9.50;99.90;;;;;;5114247;27;20501;-90
2022/12/22 05:21:06;;;;;;;26.58;16.20;;;9.50;99.90;;;;;;5101618;28;20043;-91
2022/12/22 05:23:32;;;;;;;27.58;17.08;;;9.50;99.90;;;;;;5092827;28;20039;-90
2022/12/22 05:25:57;;;;;;;26.27;16.75;;;9.50;99.90;;;;;;5096938;27;20031;-91
2022/12/22 05:28:23;;;;;;;27.70;17.48;;;9.50;99.90;;;;;;5131512;27;20122;-90
2022/12/22 05:30:49;;;;;;;27.40;17.33;;;9.50;99.90;;;;;;5092489;28;20115;-90
2022/12/22 05:33:14;;;;;;;26.17;16.85;;;9.50;99.90;;;;;;5092955;28;20039;-90
2022/12/22 05:35:40;;;;;;;23.92;16.15;;;9.50;99.90;;;;;;5093327;28;20039;-90
2022/12/22 05:38:06;;;;;;;29.48;17.83;;;9.50;99.90;;;;;;5092811;28;20039;-90
2022/12/22 05:40:31;;;;;;;28.05;16.83;;;9.50;99.90;;;;;;5093163;28;20039;-91
2022/12/22 05:42:57;;;;;;;27.73;17.65;;;9.50;99.90;;;;;;5093110;28;20114;-90
2022/12/22 05:45:22;;;;;;;27.70;17.13;;;9.50;99.90;;;;;;5101071;28;20035;-90
2022/12/22 05:47:51;;;;;;;53.90;19.48;;;9.50;99.90;;;;;;5092663;28;20118;-90
2022/12/22 05:50:25;;;;;;;28.60;17.73;;;9.40;99.90;;;;;;5109744;28;20484;-90
2022/12/22 05:52:51;;;;;;;26.35;17.13;;;9.50;99.90;;;;;;5092116;28;20044;-90
2022/12/22 05:55:16;;;;;;;29.83;17.45;;;9.40;99.90;;;;;;5092789;28;20046;-90
2022/12/22 05:57:42;;;;;;;29.45;18.23;;;9.40;99.90;;;;;;5103778;28;20039;-90
2022/12/22 06:00:13;;;;;;;30.25;19.05;;;9.40;99.90;;;;;;5113517;27;20034;-90
2022/12/22 06:02:40;;;;;;;26.35;17.38;;;9.40;99.90;;;;;;5112608;27;20045;-90
2022/12/22 06:05:06;;;;;;;30.17;17.77;;;9.40;99.90;;;;;;5117527;27;20044;-90
2022/12/22 06:07:31;;;;;;;29.85;18.08;;;9.40;99.90;;;;;;5092498;28;20070;-90
2022/12/22 06:09:57;;;;;;;29.55;17.67;;;9.40;99.90;;;;;;5091595;28;20413;-91
2022/12/22 06:12:22;;;;;;;26.08;16.05;;;9.40;99.90;;;;;;5092148;28;20132;-90
2022/12/22 06:14:48;;;;;;;22.48;14.68;;;9.40;99.90;;;;;;5092484;28;20408;-90
2022/12/22 06:17:14;;;;;;;24.05;14.13;;;9.40;99.90;;;;;;5093342;28;20039;-90
2022/12/22 06:19:39;;;;;;;25.20;16.23;;;9.40;99.90;;;;;;5092680;28;20043;-91
2022/12/22 06:22:05;;;;;;;24.85;15.55;;;9.40;99.90;;;;;;5091951;28;21100;-90
2022/12/22 06:24:31;;;;;;;25.52;16.10;;;9.40;99.90;;;;;;5110468;28;20032;-90
2022/12/22 06:26:56;;;;;;;25.48;16.75;;;9.40;99.90;;;;;;5093707;28;20127;-90
2022/12/22 06:29:22;;;;;;;28.33;15.90;;;9.40;99.90;;;;;;5112398;28;20043;-89
2022/12/22 06:31:48;;;;;;;27.05;16.27;;;9.30;99.90;;;;;;5111870;28;20096;-90
2022/12/22 06:34:16;;;;;;;27.90;16.30;;;9.30;99.90;;;;;;5102672;28;20031;-90
2022/12/22 06:36:45;;;;;;;26.52;15.82;;;9.30;99.90;;;;;;5113384;28;20070;-90
2022/12/22 06:39:12;;;;;;;28.42;17.55;;;9.30;99.90;;;;;;5103860;28;20531;-90
2022/12/22 06:44:22;;;;;;;28.20;15.98;;;9.30;99.90;;;;;;5092455;28;20056;-90
2022/12/22 06:46:48;;;;;;;29.02;17.23;;;9.30;99.90;;;;;;5117424;28;20600;-90
2022/12/22 06:49:13;;;;;;;27.23;16.63;;;9.30;99.90;;;;;;5075004;28;20477;-89
2022/12/22 06:51:39;;;;;;;28.20;16.88;;;9.30;99.90;;;;;;5097541;28;20043;-90
2022/12/22 06:54:05;;;;;;;27.35;15.02;;;9.30;99.90;;;;;;5130417;28;20374;-90
2022/12/22 06:56:30;;;;;;;28.65;16.23;;;9.30;99.90;;;;;;5113134;28;20143;-89
2022/12/22 06:58:56;;;;;;;29.55;16.38;;;9.40;99.90;;;;;;5130672;28;20039;-90
2022/12/22 07:01:21;;;;;;;27.00;15.73;;;9.40;99.90;;;;;;5114095;27;20039;-89
2022/12/22 07:03:47;;;;;;;27.58;14.85;;;9.40;99.90;;;;;;5127589;27;20061;-90
2022/12/22 07:06:13;;;;;;;30.25;17.48;;;9.40;99.90;;;;;;5095923;28;20039;-90
2022/12/22 07:08:38;;;;;;;29.98;15.65;;;9.40;99.90;;;;;;5095702;27;20395;-90
2022/12/22 07:11:04;;;;;;;31.23;15.20;;;9.50;99.90;;;;;;5098786;27;20121;-90
2022/12/22 07:13:33;;;;;;;31.83;16.23;;;9.50;99.90;;;;;;5115979;27;20046;-90
2022/12/22 07:16:00;;;;;;;29.85;15.68;;;9.50;99.90;;;;;;5120654;27;20480;-90
2022/12/22 07:18:28;;;;;;;29.50;15.05;;;9.50;99.90;;;;;;5109383;27;20108;-91
2022/12/22 07:20:53;;;;;;;29.60;14.80;;;9.50;99.90;;;;;;5097510;28;20512;-90
2022/12/22 07:23:19;;;;;;;28.05;14.73;;;9.50;99.90;;;;;;5112739;28;20047;-90
2022/12/22 07:25:44;;;;;;;28.50;14.68;;;9.50;99.90;;;;;;5101846;27;20736;-90
2022/12/22 07:28:10;;;;;;;31.13;14.15;;;9.50;99.90;;;;;;5132968;27;20039;-90
2022/12/22 07:30:36;;;;;;;29.27;13.90;;;9.40;99.90;;;;;;5114828;27;20509;-90
2022/12/22 07:33:02;;;;;;;31.33;16.00;;;9.40;99.90;;;;;;5132022;27;20044;-90
2022/12/22 07:35:28;;;;;;;31.92;15.80;;;9.40;99.90;;;;;;5115204;27;20054;-90
2022/12/22 07:37:54;;;;;;;31.30;14.43;;;9.30;99.90;;;;;;5110715;28;20123;-90
2022/12/22 07:40:19;;;;;;;29.23;14.93;;;9.30;99.90;;;;;;5110558;27;20455;-90
2022/12/22 07:42:45;;;;;;;30.80;14.80;;;9.30;99.90;;;;;;5111901;27;20068;-90
2022/12/22 07:45:16;;;;;;;30.45;15.02;;;9.20;99.90;;;;;;5094252;28;20043;-90
2022/12/22 07:47:42;;;;;;;32.50;13.20;;;9.20;99.90;;;;;;5094137;28;20067;-90
2022/12/22 07:50:26;;;;;;;30.33;14.63;;;9.10;99.90;;;;;;5111824;28;20039;-90
2022/12/22 07:52:54;;;;;;;28.35;14.18;;;9.00;99.90;;;;;;5093722;28;20044;-90
2022/12/22 07:55:20;;;;;;;30.92;14.02;;;8.90;99.90;;;;;;5095646;27;20035;-90
2022/12/22 07:57:46;;;;;;;32.08;14.80;;;8.90;99.90;;;;;;5101706;28;20051;-90
2022/12/22 08:00:13;;;;;;;34.45;15.27;;;8.80;99.90;;;;;;5094896;28;20046;-90
2022/12/22 08:02:38;;;;;;;29.70;14.20;;;8.80;99.90;;;;;;5101610;27;20053;-90
2022/12/22 08:05:04;;;;;;;29.65;12.68;;;8.70;99.90;;;;;;5097736;27;20039;-90
2022/12/22 08:07:31;;;;;;;51.55;12.10;;;8.70;99.90;;;;;;5113886;27;20118;-90
2022/12/22 08:09:57;;;;;;;235.05;16.05;;;8.60;99.90;;;;;;5104212;27;20062;-90
2022/12/22 08:12:23;;;;;;;100.95;12.35;;;8.50;99.90;;;;;;5112682;27;20535;-90
2022/12/22 08:14:49;;;;;;;74.15;11.38;;;8.30;99.90;;;;;;5114978;27;20045;-89
2022/12/22 08:17:14;;;;;;;38.80;11.20;;;8.20;99.90;;;;;;5095140;28;20492;-90
2022/12/22 08:19:40;;;;;;;36.85;12.80;;;8.10;99.90;;;;;;5112582;28;20089;-90
2022/12/22 08:22:05;;;;;;;41.75;12.85;;;8.10;99.90;;;;;;5092952;28;20412;-90
2022/12/22 08:24:31;;;;;;;50.17;14.30;;;8.00;99.90;;;;;;5076786;28;20156;-90
2022/12/22 08:27:01;;;;;;;32.95;12.43;;;8.00;99.90;;;;;;5100250;27;20039;-90
2022/12/22 08:29:42;;;;;;;72.40;11.30;;;7.90;99.90;;;;;;5093206;28;20127;-89
2022/12/22 08:32:08;;;;;;;34.22;13.85;;;7.90;99.90;;;;;;5092665;28;20051;-90
2022/12/22 08:34:34;;;;;;;32.25;12.95;;;7.80;99.90;;;;;;5094993;27;20058;-90
2022/12/22 08:37:01;;;;;;;32.78;12.60;;;7.80;99.90;;;;;;5123571;27;20173;-91
2022/12/22 08:39:34;;;;;;;32.75;12.70;;;7.80;99.90;;;;;;5121611;27;20042;-90
2022/12/22 08:42:02;;;;;;;33.75;14.90;;;7.90;99.90;;;;;;5106091;27;20030;-91
2022/12/22 08:44:29;;;;;;;35.92;13.57;;;7.90;99.90;;;;;;5122264;27;20074;-90
2022/12/22 08:46:56;;;;;;;37.88;16.02;;;7.90;99.90;;;;;;5120677;27;20155;-90
2022/12/22 08:49:23;;;;;;;33.92;13.55;;;8.00;99.90;;;;;;5114854;27;20088;-90
2022/12/22 08:51:49;;;;;;;42.13;15.85;;;8.00;99.90;;;;;;5109021;28;20055;-89
2022/12/22 08:54:15;;;;;;;41.15;16.63;;;8.10;99.90;;;;;;5092215;28;20152;-89
2022/12/22 08:56:41;;;;;;;41.58;16.33;;;8.10;99.90;;;;;;5092875;28;20489;-90
2022/12/22 08:59:08;;;;;;;37.03;14.52;;;8.20;99.90;;;;;;5093025;28;20089;-90
2022/12/22 09:01:38;;;;;;;37.42;15.07;;;8.20;99.90;;;;;;5110568;28;20043;-90
2022/12/22 09:04:08;;;;;;;34.83;13.13;;;8.10;99.90;;;;;;5092479;28;20047;-90
2022/12/22 09:06:33;;;;;;;30.48;13.63;;;8.10;99.90;;;;;;5101471;28;20044;-89
2022/12/22 09:09:02;;;;;;;33.00;13.00;;;8.10;99.90;;;;;;5093033;28;20097;-90
2022/12/22 09:11:28;;;;;;;36.85;13.98;;;8.00;99.90;;;;;;5094166;27;20100;-89
2022/12/22 09:13:56;;;;;;;36.65;13.80;;;8.00;99.90;;;;;;5121307;27;20507;-89
2022/12/22 09:16:23;;;;;;;28.13;10.63;;;8.00;99.90;;;;;;5139679;27;20049;-90
2022/12/22 09:18:48;;;;;;;28.67;10.52;;;8.00;99.90;;;;;;5123024;27;20102;-90
2022/12/22 09:21:15;;;;;;;26.27;11.02;;;7.90;99.90;;;;;;5121731;27;20583;-89
2022/12/22 09:23:41;;;;;;;25.35;10.57;;;7.90;99.90;;;;;;5123884;27;20103;-90
2022/12/22 09:26:12;;;;;;;27.30;12.05;;;7.90;99.90;;;;;;5122583;27;20507;-89
2022/12/22 09:28:38;;;;;;;30.33;12.57;;;7.80;99.90;;;;;;5117596;27;20461;-90
2022/12/22 09:31:04;;;;;;;29.20;12.43;;;7.80;99.90;;;;;;5123100;27;20476;-89
2022/12/22 09:33:31;;;;;;;20.02;9.10;;;7.80;99.90;;;;;;5117402;27;20114;-90
2022/12/22 09:35:56;;;;;;;22.65;9.50;;;7.80;99.90;;;;;;5151798;27;20082;-90
2022/12/22 09:38:26;;;;;;;25.58;9.27;;;7.70;99.90;;;;;;5133442;27;20480;-90
2022/12/22 09:40:56;;;;;;;24.17;10.20;;;7.70;99.90;;;;;;5117041;27;20437;-90
2022/12/22 09:43:27;;;;;;;27.67;10.23;;;7.70;99.90;;;;;;5121122;27;20415;-90
2022/12/22 09:45:53;;;;;;;25.40;10.10;;;7.70;99.90;;;;;;5098565;27;20043;-90
2022/12/22 09:48:19;;;;;;;24.45;9.80;;;7.70;99.90;;;;;;5095559;27;20385;-90
2022/12/22 09:50:45;;;;;;;28.15;10.38;;;7.70;99.90;;;;;;5109794;27;20041;-89
2022/12/22 09:53:21;;;;;;;26.38;10.23;;;7.70;99.90;;;;;;5091444;28;20127;-89
2022/12/22 09:55:49;;;;;;;28.23;11.15;;;7.70;99.90;;;;;;5091698;28;20079;-89
2022/12/22 09:58:28;;;;;;;21.42;7.00;;;7.70;99.90;;;;;;5098877;27;20087;-90
2022/12/22 10:01:04;;;;;;;18.90;6.80;;;7.60;99.90;;;;;;5090379;28;20055;-89
2022/12/22 10:03:52;;;;;;;21.65;8.30;;;7.60;99.90;;;;;;5090049;28;20047;-89
2022/12/22 10:06:33;;;;;;;21.50;7.93;;;7.60;99.90;;;;;;5091541;28;20047;-90
2022/12/22 10:09:22;;;;;;;21.65;9.13;;;7.60;99.90;;;;;;5092073;28;20061;-90
2022/12/22 10:11:52;;;;;;;24.30;8.88;;;7.60;99.90;;;;;;5091358;28;20151;-90
2022/12/22 10:14:18;;;;;;;22.95;8.50;;;7.60;99.90;;;;;;5091767;28;20032;-89
2022/12/22 10:16:44;;;;;;;20.88;8.23;;;7.60;99.90;;;;;;5091607;28;20040;-89
2022/12/22 10:19:11;;;;;;;21.00;9.48;;;7.60;99.90;;;;;;5108413;28;20045;-89
2022/12/22 10:21:37;;;;;;;21.08;7.63;;;7.70;99.90;;;;;;5129951;28;20395;-89
2022/12/22 10:24:38;;;;;;;20.17;8.15;;;7.70;99.90;;;;;;5099084;28;20043;-89
2022/12/22 10:27:04;;;;;;;20.05;6.47;;;7.70;99.90;;;;;;5007757;28;20048;-88
2022/12/22 10:29:32;;;;;;;21.17;8.52;;;7.70;99.90;;;;;;5001755;28;20077;-89
2022/12/22 10:31:59;;;;;;;22.60;9.52;;;7.70;99.90;;;;;;5009432;28;20045;-90
2022/12/22 10:34:25;;;;;;;18.35;7.85;;;7.80;99.90;;;;;;4999232;28;20041;-89
2022/12/22 10:36:55;;;;;;;23.33;9.65;;;7.90;99.90;;;;;;5020536;28;20044;-89
2022/12/22 10:39:23;;;;;;;19.83;8.13;;;8.00;99.90;;;;;;5007735;28;20038;-89
2022/12/22 10:41:53;;;;;;;20.80;8.55;;;8.10;99.90;;;;;;5013900;28;20064;-89
2022/12/22 10:44:28;;;;;;;22.30;9.13;;;8.20;99.90;;;;;;5005585;28;20041;-89
2022/12/22 10:46:59;;;;;;;21.25;7.40;;;8.40;99.90;;;;;;5014517;28;20048;-90
2022/12/22 10:49:27;;;;;;;19.50;7.75;;;8.50;99.90;;;;;;5013927;28;20045;-89
2022/12/22 10:52:17;;;;;;;18.05;7.15;;;8.50;99.90;;;;;;5014155;28;20049;-89
2022/12/22 10:54:44;;;;;;;14.05;6.28;;;8.40;99.90;;;;;;5013284;28;20084;-89
2022/12/22 10:57:12;;;;;;;16.50;6.43;;;8.40;99.90;;;;;;5013817;28;20037;-89
2022/12/22 10:59:49;;;;;;;16.23;6.38;;;8.40;99.90;;;;;;5014263;28;20502;-89
2022/12/22 11:02:24;;;;;;;19.70;6.70;;;8.40;99.90;;;;;;5108507;27;20400;-90
2022/12/22 11:04:51;;;;;;;19.15;7.47;;;8.50;99.90;;;;;;5115730;27;20055;-89
2022/12/22 11:07:17;;;;;;;15.88;6.68;;;8.60;99.90;;;;;;5114673;27;20043;-90
2022/12/22 11:09:43;;;;;;;14.00;6.50;;;8.80;99.90;;;;;;5114885;27;20066;-90
2022/12/22 11:12:32;;;;;;;13.73;5.63;;;8.80;99.90;;;;;;5115276;27;20059;-90
2022/12/22 11:15:14;;;;;;;13.05;5.32;;;8.80;99.90;;;;;;5113456;27;20042;-89
2022/12/22 11:17:43;;;;;;;11.35;5.18;;;8.80;99.90;;;;;;5095099;28;20044;-89
2022/12/22 11:20:33;;;;;;;12.55;4.95;;;8.60;99.90;;;;;;5103668;27;20047;-90
2022/12/22 11:23:09;;;;;;;9.95;3.78;;;8.50;99.90;;;;;;5097837;27;20123;-90
2022/12/22 11:25:48;;;;;;;14.80;5.95;;;8.30;99.90;;;;;;5115471;27;20043;-89
2022/12/22 11:28:31;;;;;;;12.35;5.35;;;8.20;99.90;;;;;;5124263;27;20054;-91
2022/12/22 11:31:20;;;;;;;11.60;5.60;;;8.20;99.90;;;;;;5115637;27;20038;-89
2022/12/22 11:34:08;;;;;;;15.50;5.25;;;8.30;99.90;;;;;;5113499;27;20074;-89
2022/12/22 11:37:14;;;;;;;16.33;6.68;;;8.40;99.90;;;;;;5094969;28;20044;-90
2022/12/22 11:39:52;;;;;;;13.35;5.53;;;8.70;99.90;;;;;;5075860;28;20058;-89
2022/12/22 11:42:45;;;;;;;15.02;5.50;;;8.80;99.90;;;;;;5094516;28;20074;-89
2022/12/22 11:45:38;;;;;;;13.23;5.57;;;9.00;99.90;;;;;;5104255;27;20171;-89
2022/12/22 11:48:11;;;;;;;17.23;5.65;;;9.20;99.90;;;;;;5114605;27;20527;-89
2022/12/22 11:50:48;;;;;;;16.20;6.55;;;9.50;99.90;;;;;;5113650;27;20054;-90
2022/12/22 11:53:23;;;;;;;15.30;5.43;;;9.70;99.90;;;;;;5093109;28;20122;-90
2022/12/22 11:56:19;;;;;;;18.17;7.03;;;9.90;99.90;;;;;;5112372;28;20046;-89
2022/12/22 11:59:05;;;;;;;17.08;6.72;;;10.30;99.90;;;;;;5093916;28;20050;-89
2022/12/22 12:01:49;;;;;;;14.30;5.55;;;10.70;99.90;;;;;;5117043;27;20031;-89
2022/12/22 12:04:33;;;;;;;16.77;5.97;;;11.20;99.90;;;;;;5092344;28;20044;-90
2022/12/22 12:07:19;;;;;;;12.95;5.35;;;11.80;99.90;;;;;;5124806;27;20046;-89
2022/12/22 12:10:12;;;;;;;18.67;6.72;;;12.30;99.90;;;;;;5120463;27;20050;-89
2022/12/22 12:12:59;;;;;;;20.30;5.65;;;12.60;99.90;;;;;;5124109;27;20448;-89
2022/12/22 12:15:45;;;;;;;18.60;6.43;;;12.70;99.90;;;;;;5121643;27;20045;-89
2022/12/22 12:18:50;;;;;;;16.30;8.85;;;13.10;99.90;;;;;;5124722;27;20030;-89
2022/12/22 12:22:02;;;;;;;14.18;6.65;;;13.70;99.90;;;;;;5121725;27;20039;-90
2022/12/22 12:24:48;;;;;;;15.73;7.53;;;14.70;99.90;;;;;;5100877;27;20090;-90
2022/12/22 12:27:48;;;;;;;14.40;6.03;;;15.70;99.90;;;;;;5138410;27;20083;-90
2022/12/22 12:30:17;;;;;;;15.23;7.28;;;16.00;92.00;;;;;;5123031;27;20054;-90
2022/12/22 12:32:59;;;;;;;15.10;7.95;;;16.40;93.10;;;;;;5120358;27;20469;-90
2022/12/22 12:35:41;;;;;;;17.08;8.10;;;16.80;90.50;;;;;;5093245;28;20039;-90
2022/12/22 12:38:32;;;;;;;16.25;7.90;;;16.80;85.00;;;;;;5092725;28;20040;-90
2022/12/22 12:41:17;;;;;;;14.15;7.18;;;16.70;85.00;;;;;;5111190;28;20306;-89
2022/12/22 12:43:46;;;;;;;15.25;7.90;;;16.90;85.60;;;;;;5092940;28;20501;-90
2022/12/22 12:46:49;;;;;;;14.35;7.43;;;16.90;82.80;;;;;;5110288;27;20095;-90
2022/12/22 12:49:33;;;;;;;15.45;7.63;;;17.00;80.50;;;;;;5114422;27;20137;-90
2022/12/22 12:52:08;;;;;;;15.10;7.95;;;17.10;79.40;;;;;;5105984;27;20043;-90
2022/12/22 12:54:41;;;;;;;16.58;8.20;;;17.30;79.20;;;;;;5132249;27;20035;-91
2022/12/22 12:57:21;;;;;;;15.15;7.95;;;17.70;78.10;;;;;;5104883;28;20547;-90
2022/12/22 12:59:48;;;;;;;17.05;8.77;;;18.00;76.50;;;;;;5093214;28;20079;-90
2022/12/22 13:02:25;;;;;;;16.08;8.45;;;18.10;75.80;;;;;;5094884;27;20123;-91
2022/12/22 13:05:06;;;;;;;15.13;7.93;;;18.30;73.10;;;;;;5097920;28;20075;-91
2022/12/22 13:08:09;;;;;;;14.40;7.82;;;18.50;73.40;;;;;;5130876;27;20138;-91
2022/12/22 13:11:07;;;;;;;15.30;8.00;;;18.70;71.60;;;;;;5135244;27;20035;-91
2022/12/22 13:13:38;;;;;;;16.33;7.55;;;18.80;71.80;;;;;;5113053;27;20051;-90
2022/12/22 13:16:03;;;;;;;15.73;7.65;;;19.00;70.60;;;;;;5112779;27;20047;-89
2022/12/22 13:18:32;;;;;;;13.80;7.20;;;19.10;69.50;;;;;;5093545;28;20389;-90
2022/12/22 13:21:11;;;;;;;14.75;7.20;;;19.20;69.30;;;;;;5097268;27;20073;-90
2022/12/22 13:23:44;;;;;;;14.27;7.13;;;19.60;68.50;;;;;;5086261;27;20031;-90
2022/12/22 13:26:19;;;;;;;13.18;6.88;;;19.80;67.70;;;;;;5112974;27;20579;-90
2022/12/22 13:28:53;;;;;;;14.65;6.35;;;20.00;66.10;;;;;;5112707;27;20071;-90
2022/12/22 13:31:24;;;;;;;14.07;7.07;;;19.90;65.80;;;;;;5112685;27;20046;-90
2022/12/22 13:34:22;;;;;;;14.93;7.13;;;19.60;65.50;;;;;;5111840;27;20035;-90
2022/12/22 13:36:49;;;;;;;14.27;5.90;;;19.60;66.10;;;;;;5094335;28;20114;-91
2022/12/22 13:39:15;;;;;;;14.48;6.03;;;19.30;65.70;;;;;;5094614;27;20095;-90
2022/12/22 13:41:43;;;;;;;12.38;5.53;;;19.30;66.10;;;;;;5112868;27;20046;-90
2022/12/22 13:44:30;;;;;;;13.23;5.22;;;19.10;65.60;;;;;;5129950;27;20077;-90
2022/12/22 13:47:04;;;;;;;10.60;4.70;;;18.80;65.20;;;;;;5112449;27;20041;-90
2022/12/22 13:49:33;;;;;;;12.73;4.82;;;18.50;66.70;;;;;;5112585;27;20499;-90
2022/12/22 13:52:00;;;;;;;11.23;4.65;;;18.40;66.80;;;;;;5099339;28;20075;-90
2022/12/22 13:54:31;;;;;;;11.25;4.45;;;18.40;66.60;;;;;;5109664;28;20477;-90
2022/12/22 13:56:58;;;;;;;10.48;5.03;;;18.50;66.70;;;;;;5091936;28;20485;-91
2022/12/22 13:59:32;;;;;;;11.93;4.97;;;18.60;66.80;;;;;;5108468;27;20043;-90
2022/12/22 14:02:07;;;;;;;11.70;4.90;;;18.70;66.50;;;;;;5130825;27;20031;-90
2022/12/22 14:04:34;;;;;;;11.82;5.15;;;18.70;66.50;;;;;;5096682;28;20048;-90
2022/12/22 14:07:12;;;;;;;13.98;5.07;;;19.00;66.80;;;;;;5091905;28;20043;-90
2022/12/22 14:09:49;;;;;;;11.68;5.18;;;18.90;65.40;;;;;;5099885;28;20036;-90
2022/12/22 14:12:19;;;;;;;13.80;6.20;;;18.40;66.00;;;;;;5090692;28;20086;-91
2022/12/22 14:14:47;;;;;;;12.25;6.07;;;17.70;67.00;;;;;;5091261;28;20122;-90
2022/12/22 14:17:18;;;;;;;13.95;6.70;;;16.90;68.50;;;;;;5111186;28;20046;-90
2022/12/22 14:19:55;;;;;;;13.55;6.43;;;16.10;70.10;;;;;;5112221;28;20043;-90
2022/12/22 14:22:29;;;;;;;11.68;5.72;;;15.40;72.20;;;;;;5091619;28;20043;-91
2022/12/22 14:25:00;;;;;;;14.80;6.55;;;15.10;74.30;;;;;;5109406;28;20048;-90
2022/12/22 14:27:49;;;;;;;14.13;6.32;;;15.00;75.30;;;;;;5083089;28;20047;-90
2022/12/22 14:30:20;;;;;;;13.23;6.10;;;14.90;76.10;;;;;;5109963;28;20035;-90
2022/12/22 14:32:51;;;;;;;13.90;6.28;;;14.80;76.80;;;;;;5114913;28;20388;-90
2022/12/22 14:35:22;;;;;;;12.30;5.72;;;14.80;77.50;;;;;;5111534;28;20047;-90
2022/12/22 14:38:19;;;;;;;13.27;6.22;;;14.70;77.80;;;;;;5112057;28;20039;-90
2022/12/22 14:40:45;;;;;;;14.65;6.15;;;14.40;78.00;;;;;;5089100;28;20052;-89
2022/12/22 14:43:24;;;;;;;12.05;3.22;;;14.00;80.20;;;;;;5091460;28;20117;-90
2022/12/22 14:45:59;;;;;;;9.70;3.00;;;13.40;82.60;;;;;;5103715;28;20035;-89
2022/12/22 14:48:31;;;;;;;9.57;3.08;;;12.80;87.20;;;;;;5118000;27;20138;-89
2022/12/22 14:50:58;;;;;;;12.27;4.00;;;12.40;91.50;;;;;;5110151;28;20032;-89
2022/12/22 14:53:36;;;;;;;13.13;5.38;;;12.10;93.80;;;;;;5108473;28;20036;-90
2022/12/22 14:56:01;;;;;;;13.57;3.78;;;12.00;97.20;;;;;;5090981;28;20062;-90
2022/12/22 14:58:32;;;;;;;10.02;3.00;;;11.70;97.80;;;;;;5109033;28;20485;-90
2022/12/22 15:01:25;;;;;;;10.02;3.05;;;11.50;99.90;;;;;;5110228;28;20508;-90
2022/12/22 15:04:14;;;;;;;16.08;4.35;;;11.30;99.90;;;;;;5108474;28;20036;-89
2022/12/22 15:06:46;;;;;;;13.43;3.85;;;11.10;99.90;;;;;;5091789;28;20075;-89
2022/12/22 15:09:12;;;;;;;13.10;3.58;;;10.80;99.90;;;;;;5111437;27;20048;-90
2022/12/22 15:11:51;;;;;;;10.45;3.67;;;10.70;99.90;;;;;;5130034;27;20098;-90
2022/12/22 15:14:23;;;;;;;14.18;4.32;;;10.60;99.90;;;;;;5131967;27;20043;-90
2022/12/22 15:16:50;;;;;;;10.65;3.53;;;10.50;99.90;;;;;;5126161;27;20035;-89
2022/12/22 15:19:19;;;;;;;10.18;4.57;;;10.30;99.90;;;;;;5091340;28;20111;-89
2022/12/22 15:21:45;;;;;;;12.80;4.28;;;10.20;99.90;;;;;;5096774;27;20515;-89
2022/12/22 15:24:14;;;;;;;12.05;4.63;;;10.20;99.90;;;;;;5132775;27;20039;-89
2022/12/22 15:26:40;;;;;;;12.63;4.72;;;10.00;99.90;;;;;;5115758;27;20047;-90
2022/12/22 15:29:06;;;;;;;12.18;5.20;;;10.00;99.90;;;;;;5115162;27;20381;-89
2022/12/22 15:31:31;;;;;;;13.18;5.07;;;9.90;99.90;;;;;;5114967;27;20515;-90
2022/12/22 15:34:01;;;;;;;13.43;5.43;;;9.90;99.90;;;;;;5110187;28;20119;-89
2022/12/22 15:36:26;;;;;;;12.55;5.28;;;9.90;99.90;;;;;;5094272;28;20259;-90
2022/12/22 15:38:52;;;;;;;13.90;6.00;;;9.80;99.90;;;;;;5094462;28;20043;-90
2022/12/22 15:41:18;;;;;;;13.98;4.90;;;9.80;99.90;;;;;;5103307;28;20138;-89
2022/12/22 15:43:43;;;;;;;13.82;4.93;;;9.80;99.90;;;;;;5094432;28;20051;-89
2022/12/22 15:46:17;;;;;;;12.65;5.07;;;9.80;99.90;;;;;;5101533;28;20035;-90
2022/12/22 15:48:44;;;;;;;14.20;5.53;;;9.80;99.90;;;;;;5109678;27;20534;-90
2022/12/22 15:51:21;;;;;;;13.45;6.13;;;9.70;99.90;;;;;;5141486;27;20391;-89
2022/12/22 15:53:47;;;;;;;12.52;6.20;;;9.70;99.90;;;;;;5121196;27;20054;-89
2022/12/22 15:56:20;;;;;;;15.40;5.88;;;9.70;99.90;;;;;;5117385;27;20121;-89
2022/12/22 15:58:47;;;;;;;15.35;5.47;;;9.70;99.90;;;;;;5123962;27;20121;-89
2022/12/22 16:01:12;;;;;;;15.05;6.10;;;9.60;99.90;;;;;;5124458;27;20138;-89
2022/12/22 16:03:38;;;;;;;16.38;6.82;;;9.60;99.90;;;;;;5107400;27;20432;-89
2022/12/22 16:06:05;;;;;;;15.60;6.45;;;9.60;99.90;;;;;;5142833;27;20031;-89
2022/12/22 16:08:37;;;;;;;16.92;6.72;;;9.50;99.90;;;;;;5125627;27;20042;-89
2022/12/22 16:11:04;;;;;;;15.05;6.35;;;9.40;99.90;;;;;;5123978;27;20035;-89
2022/12/22 16:13:30;;;;;;;14.35;7.05;;;9.40;99.90;;;;;;5124429;27;20461;-89
2022/12/22 16:15:56;;;;;;;15.57;7.25;;;9.40;99.90;;;;;;5099979;27;20048;-90
2022/12/22 16:18:22;;;;;;;15.98;7.35;;;9.40;99.90;;;;;;5102323;27;20041;-90
2022/12/22 16:20:51;;;;;;;18.20;7.50;;;9.30;99.90;;;;;;5121998;27;20047;-89
2022/12/22 16:23:23;;;;;;;14.98;7.32;;;9.30;99.90;;;;;;5124242;27;20031;-90
2022/12/22 16:25:49;;;;;;;14.20;7.95;;;9.20;99.90;;;;;;5119766;27;20081;-89
2022/12/22 16:28:19;;;;;;;22.42;7.85;;;9.20;99.90;;;;;;5131226;27;20070;-89
2022/12/22 16:30:46;;;;;;;16.75;8.57;;;9.10;99.90;;;;;;5134925;27;20071;-90
2022/12/22 16:33:12;;;;;;;15.93;8.25;;;9.10;99.90;;;;;;5104944;27;20055;-89
2022/12/22 16:35:39;;;;;;;18.33;8.82;;;9.10;99.90;;;;;;5093070;28;20504;-90